Time;durP1;ratioP1;P1;durP2;ratioP2;P2;SDS_P1;SDS_P2;PMS_P1;PMS_P2;Temp;Humidity;BMP_temperature;BMP_pressure;BME280_temperature;BME280_humidity;BME280_pressure;Samples;Min_cycle;Max_cycle;Signal;HPM_P1;HPM_P2
2022/05/09 00:01:46;;;;;;;12.93;9.43;;;11.90;99.90;;;;;;10467549;28;20165;-88
2022/05/09 00:06:48;;;;;;;13.68;9.27;;;11.90;99.90;;;;;;10488211;28;20082;-88
2022/05/09 00:11:49;;;;;;;13.02;9.32;;;11.90;99.90;;;;;;10487520;28;20052;-87
2022/05/09 00:16:51;;;;;;;12.52;8.80;;;11.90;99.90;;;;;;10487182;28;20040;-87
2022/05/09 00:21:52;;;;;;;14.68;9.15;;;12.00;99.90;;;;;;10487569;28;20035;-88
2022/05/09 00:26:53;;;;;;;11.65;8.80;;;12.10;99.90;;;;;;10486442;28;20044;-87
2022/05/09 00:31:57;;;;;;;12.35;8.45;;;12.10;99.90;;;;;;10487069;28;20044;-88
2022/05/09 00:36:59;;;;;;;12.95;8.60;;;12.10;99.90;;;;;;10487154;28;20365;-87
2022/05/09 00:42:12;;;;;;;12.90;9.00;;;12.10;99.90;;;;;;10468717;28;20040;-88
2022/05/09 00:47:13;;;;;;;14.15;9.20;;;12.10;99.90;;;;;;10479110;28;20496;-87
2022/05/09 00:52:13;;;;;;;11.88;9.38;;;12.00;99.90;;;;;;10486938;28;20036;-86
2022/05/09 00:57:38;;;;;;;13.68;9.15;;;12.00;99.90;;;;;;10468427;28;20036;-87
2022/05/09 01:02:43;;;;;;;14.63;8.98;;;11.80;99.90;;;;;;10486061;28;20405;-88
2022/05/09 01:07:44;;;;;;;15.10;9.23;;;11.60;99.90;;;;;;10468487;28;20033;-88
2022/05/09 01:12:45;;;;;;;13.75;8.35;;;11.50;99.90;;;;;;10490521;28;20044;-87
2022/05/09 01:17:48;;;;;;;10.60;8.23;;;11.30;99.90;;;;;;10493412;28;20040;-87
2022/05/09 01:22:48;;;;;;;13.15;8.75;;;11.10;99.90;;;;;;10493388;28;20032;-88
2022/05/09 01:27:49;;;;;;;11.50;8.52;;;11.00;99.90;;;;;;10493250;28;20067;-87
2022/05/09 01:32:56;;;;;;;13.15;8.98;;;10.90;99.90;;;;;;10491860;28;20032;-87
2022/05/09 01:38:14;;;;;;;13.27;9.20;;;10.70;99.90;;;;;;10493600;28;20093;-87
2022/05/09 01:43:27;;;;;;;13.65;9.07;;;10.50;99.90;;;;;;10453611;28;20562;-87
2022/05/09 01:53:50;;;;;;;13.93;9.40;;;10.30;99.90;;;;;;10492681;28;20076;-87
2022/05/09 01:58:51;;;;;;;15.60;9.43;;;10.30;99.90;;;;;;10491370;28;20025;-87
2022/05/09 02:03:52;;;;;;;12.10;8.87;;;10.40;99.90;;;;;;10491669;28;20377;-87
2022/05/09 02:08:53;;;;;;;15.70;10.07;;;10.50;99.90;;;;;;10491235;28;20052;-88
2022/05/09 02:13:53;;;;;;;14.77;9.27;;;10.60;99.90;;;;;;10491627;28;20602;-88
2022/05/09 02:18:54;;;;;;;14.07;9.77;;;10.70;99.90;;;;;;10490629;28;20132;-88
2022/05/09 02:23:55;;;;;;;18.17;11.00;;;10.80;99.90;;;;;;10490269;28;20102;-87
2022/05/09 02:28:55;;;;;;;19.90;10.10;;;10.90;99.90;;;;;;10490986;28;20029;-87
2022/05/09 02:33:56;;;;;;;15.70;10.52;;;10.80;99.90;;;;;;10478290;28;20032;-87
2022/05/09 02:38:57;;;;;;;18.27;11.10;;;10.70;99.90;;;;;;10490374;28;20028;-88
2022/05/09 02:43:59;;;;;;;39.17;21.00;;;10.70;99.90;;;;;;10490417;28;20039;-88
2022/05/09 02:48:59;;;;;;;35.90;18.17;;;10.70;99.90;;;;;;10489824;28;20075;-87
2022/05/09 02:54:01;;;;;;;44.13;20.88;;;10.60;99.90;;;;;;10489338;28;20111;-88
2022/05/09 02:59:01;;;;;;;23.00;13.80;;;10.50;99.90;;;;;;10489718;28;20029;-88
2022/05/09 03:09:21;;;;;;;27.77;15.17;;;10.50;99.90;;;;;;10485600;28;20123;-86
2022/05/09 03:14:21;;;;;;;22.53;13.37;;;10.50;99.90;;;;;;10468650;28;20472;-85
2022/05/09 03:19:22;;;;;;;20.05;12.63;;;10.60;99.90;;;;;;10488386;28;20041;-86
2022/05/09 03:24:23;;;;;;;16.50;12.07;;;10.70;99.90;;;;;;10488631;28;20053;-86
2022/05/09 03:29:24;;;;;;;17.67;11.20;;;10.80;99.90;;;;;;10472367;28;20036;-86
2022/05/09 03:34:24;;;;;;;16.27;11.27;;;11.00;99.90;;;;;;10487926;28;20036;-87
2022/05/09 03:39:25;;;;;;;18.80;11.63;;;11.10;99.90;;;;;;10486811;28;20031;-86
2022/05/09 03:44:26;;;;;;;15.20;11.15;;;11.20;99.90;;;;;;10487888;28;20025;-85
2022/05/09 03:49:27;;;;;;;16.58;11.35;;;11.20;99.90;;;;;;10487738;28;20105;-88
2022/05/09 03:54:27;;;;;;;16.20;10.85;;;11.20;99.90;;;;;;10447066;28;20041;-88
2022/05/09 03:59:31;;;;;;;14.55;10.57;;;11.30;99.90;;;;;;10466767;28;20044;-88
2022/05/09 04:04:31;;;;;;;16.17;10.38;;;11.30;99.90;;;;;;10450907;28;20028;-90
2022/05/09 04:09:36;;;;;;;16.10;10.73;;;11.30;99.90;;;;;;10468284;28;20479;-88
2022/05/09 04:19:55;;;;;;;15.50;11.10;;;11.20;99.90;;;;;;10457993;28;20032;-89
2022/05/09 04:24:57;;;;;;;16.58;10.95;;;11.20;99.90;;;;;;10470348;28;20056;-88
2022/05/09 04:29:58;;;;;;;16.40;10.55;;;11.20;99.90;;;;;;10457993;28;20794;-88
2022/05/09 04:34:59;;;;;;;16.60;10.77;;;11.10;99.90;;;;;;10485694;28;20028;-90
2022/05/09 04:40:00;;;;;;;15.45;10.38;;;11.20;99.90;;;;;;10470886;28;20570;-89
2022/05/09 04:45:00;;;;;;;16.13;10.55;;;11.20;99.90;;;;;;10474306;28;20100;-89
2022/05/09 04:50:01;;;;;;;18.02;11.10;;;11.20;99.90;;;;;;10477753;28;20044;-88
2022/05/09 04:55:02;;;;;;;16.02;9.70;;;11.30;99.90;;;;;;10476143;28;20033;-89
2022/05/09 05:00:08;;;;;;;16.15;9.50;;;11.40;99.90;;;;;;10477727;28;20029;-88
2022/05/09 05:05:10;;;;;;;17.52;8.88;;;11.50;99.90;;;;;;10473848;28;20114;-89
2022/05/09 05:10:12;;;;;;;12.32;8.88;;;11.60;99.90;;;;;;10491271;28;20492;-89
2022/05/09 05:15:13;;;;;;;14.70;9.10;;;11.90;99.90;;;;;;10474803;28;20123;-88
2022/05/09 05:20:15;;;;;;;13.80;8.43;;;12.20;99.90;;;;;;10475912;28;20641;-88
2022/05/09 05:25:23;;;;;;;14.20;9.20;;;12.50;99.90;;;;;;10494211;28;20056;-90
2022/05/09 05:30:24;;;;;;;16.52;9.32;;;12.60;99.90;;;;;;10494054;28;20047;-89
2022/05/09 05:35:25;;;;;;;13.95;8.75;;;12.70;99.90;;;;;;10493267;28;20111;-89
2022/05/09 05:40:26;;;;;;;13.43;8.70;;;12.90;99.90;;;;;;10493431;28;20037;-88
2022/05/09 05:45:27;;;;;;;15.45;8.57;;;13.00;99.90;;;;;;10493844;28;20055;-88
2022/05/09 05:50:27;;;;;;;14.88;8.18;;;13.20;99.90;;;;;;10475589;28;20044;-88
2022/05/09 05:55:28;;;;;;;11.85;7.57;;;13.40;99.90;;;;;;10492888;28;20528;-90
2022/05/09 06:00:29;;;;;;;13.20;7.35;;;13.60;99.90;;;;;;10491333;28;20029;-90
2022/05/09 06:05:29;;;;;;;15.18;7.95;;;13.80;99.90;;;;;;10492881;28;20039;-88
2022/05/09 06:10:30;;;;;;;13.50;8.43;;;14.10;99.90;;;;;;10492143;28;20460;-88
2022/05/09 06:15:36;;;;;;;12.25;7.22;;;14.30;99.90;;;;;;10474674;28;20032;-88
2022/05/09 06:20:39;;;;;;;12.65;7.50;;;14.50;99.90;;;;;;10492108;28;20854;-89
2022/05/09 06:25:43;;;;;;;12.55;6.78;;;14.70;99.90;;;;;;10474071;28;20060;-88
2022/05/09 06:30:45;;;;;;;12.68;6.78;;;14.80;99.90;;;;;;10491551;28;20032;-88
2022/05/09 06:35:46;;;;;;;13.10;7.65;;;14.80;98.10;;;;;;10491337;28;20035;-89
2022/05/09 06:40:46;;;;;;;13.88;6.72;;;14.80;99.90;;;;;;10491150;28;20868;-91
2022/05/09 06:45:47;;;;;;;12.57;6.90;;;15.00;98.90;;;;;;10490724;28;20032;-89
2022/05/09 06:50:48;;;;;;;11.48;6.25;;;15.10;97.60;;;;;;10490698;28;20040;-88
2022/05/09 06:55:50;;;;;;;9.77;6.15;;;15.40;95.40;;;;;;10490444;28;20028;-89
2022/05/09 07:00:51;;;;;;;12.57;5.15;;;16.10;97.50;;;;;;10490469;28;20017;-89
2022/05/09 07:05:54;;;;;;;9.40;4.68;;;17.30;90.00;;;;;;10490154;28;20039;-89
2022/05/09 07:10:54;;;;;;;9.32;5.28;;;18.40;82.00;;;;;;10489796;28;20523;-89
2022/05/09 07:15:57;;;;;;;10.10;5.22;;;19.30;76.70;;;;;;10489840;28;20107;-87
2022/05/09 07:20:58;;;;;;;6.05;3.83;;;19.70;76.00;;;;;;10471904;28;20051;-87
2022/05/09 07:26:00;;;;;;;5.78;3.85;;;20.30;72.00;;;;;;10489292;28;20124;-86
2022/05/09 07:31:01;;;;;;;6.43;3.33;;;20.30;69.70;;;;;;10471471;28;20036;-88
2022/05/09 07:36:03;;;;;;;10.60;3.67;;;19.80;69.80;;;;;;10489244;28;20086;-87
2022/05/09 07:41:04;;;;;;;9.27;4.28;;;19.50;66.60;;;;;;10488848;28;20032;-88
2022/05/09 07:46:05;;;;;;;8.63;4.00;;;19.40;70.80;;;;;;10488592;28;20033;-87
2022/05/09 07:51:06;;;;;;;5.60;2.65;;;19.50;69.50;;;;;;10488497;28;20595;-86
2022/05/09 07:56:06;;;;;;;5.05;2.47;;;19.20;61.00;;;;;;10488545;28;20032;-87
2022/05/09 08:01:07;;;;;;;9.43;3.00;;;19.30;60.50;;;;;;10488692;28;20033;-85
2022/05/09 08:06:07;;;;;;;8.55;2.60;;;19.20;60.70;;;;;;10488746;28;20476;-86
2022/05/09 08:11:09;;;;;;;5.45;2.50;;;19.20;60.30;;;;;;10470236;28;20140;-85
2022/05/09 08:16:10;;;;;;;4.38;2.60;;;19.40;59.40;;;;;;10488249;28;20025;-87
2022/05/09 08:21:13;;;;;;;11.90;2.92;;;19.30;59.90;;;;;;10490350;28;20024;-87
2022/05/09 08:26:15;;;;;;;7.97;3.13;;;19.60;62.10;;;;;;10496013;28;20052;-86
2022/05/09 08:31:18;;;;;;;8.00;2.80;;;20.30;62.10;;;;;;10478250;28;20045;-85
2022/05/09 08:41:48;;;;;;;6.28;2.60;;;20.70;54.70;;;;;;10496349;28;20388;-86
2022/05/09 08:46:59;;;;;;;4.22;2.30;;;20.30;55.90;;;;;;10477685;28;20357;-89
2022/05/09 08:52:18;;;;;;;5.85;2.30;;;19.60;56.50;;;;;;10495609;28;20043;-86
2022/05/09 08:57:54;;;;;;;10.00;3.30;;;20.00;57.70;;;;;;10476775;28;20025;-85
2022/05/09 09:03:01;;;;;;;8.15;2.90;;;20.60;52.90;;;;;;10438625;28;20047;-87
2022/05/09 09:08:27;;;;;;;7.97;2.60;;;21.00;54.60;;;;;;10494856;28;20472;-84
2022/05/09 09:13:33;;;;;;;5.35;2.90;;;21.50;56.10;;;;;;10494317;28;20105;-86
2022/05/09 09:19:04;;;;;;;14.70;3.38;;;21.20;57.40;;;;;;10494112;28;20029;-85
2022/05/09 09:24:11;;;;;;;8.98;3.35;;;21.40;53.50;;;;;;10493943;28;20102;-85
2022/05/09 09:29:25;;;;;;;7.70;2.63;;;21.40;52.70;;;;;;10494093;28;20017;-86
2022/05/09 09:35:03;;;;;;;6.03;2.67;;;21.10;52.90;;;;;;10493322;28;20063;-85
2022/05/09 09:40:05;;;;;;;6.40;2.80;;;21.20;57.20;;;;;;10475726;28;20039;-84
2022/05/09 09:45:19;;;;;;;4.97;2.40;;;21.00;52.80;;;;;;10474792;28;20040;-86
2022/05/09 09:50:20;;;;;;;5.32;2.47;;;21.30;53.60;;;;;;10493305;28;20068;-86
2022/05/09 09:55:37;;;;;;;7.18;2.50;;;21.40;53.30;;;;;;10474592;28;20111;-85
2022/05/09 10:00:38;;;;;;;8.57;2.97;;;21.40;52.60;;;;;;10492738;28;20025;-85
2022/05/09 10:05:40;;;;;;;7.25;2.90;;;21.20;53.10;;;;;;10492197;28;20032;-86
2022/05/09 10:11:02;;;;;;;5.55;2.33;;;21.20;50.50;;;;;;10492203;28;20082;-85
2022/05/09 10:16:08;;;;;;;6.63;2.50;;;21.60;54.80;;;;;;10492568;28;20040;-85
2022/05/09 10:26:55;;;;;;;;;;;22.10;52.10;;;;;;10491702;28;20131;-86
2022/05/09 10:32:00;;;;;;;6.30;2.60;;;22.00;49.30;;;;;;10491203;28;20326;-85
2022/05/09 10:37:38;;;;;;;15.00;2.95;;;21.90;51.60;;;;;;10472819;28;20028;-85
2022/05/09 10:42:47;;;;;;;7.10;2.75;;;21.40;50.10;;;;;;10491159;28;20481;-84
2022/05/09 10:48:35;;;;;;;6.18;2.83;;;21.60;49.30;;;;;;10490638;28;20036;-86
2022/05/09 10:53:54;;;;;;;7.05;2.90;;;21.40;47.80;;;;;;10375310;28;20053;-86
2022/05/09 10:59:01;;;;;;;7.10;2.95;;;21.60;51.50;;;;;;10478311;28;20025;-90
2022/05/09 11:04:03;;;;;;;7.28;2.67;;;21.30;50.00;;;;;;10449742;28;20119;-87
2022/05/09 11:09:45;;;;;;;6.15;2.70;;;21.60;51.70;;;;;;10477772;28;20040;-88
2022/05/09 11:15:27;;;;;;;5.95;2.58;;;22.00;49.40;;;;;;10474061;28;20040;-86
2022/05/09 11:20:43;;;;;;;4.30;2.70;;;22.20;49.20;;;;;;10423216;28;20037;-88
2022/05/09 11:25:59;;;;;;;;;;;21.90;48.30;;;;;;10477601;28;20056;-88
2022/05/09 11:31:23;;;;;;;5.00;2.40;;;21.90;44.70;;;;;;10476903;28;19947;-87
2022/05/09 11:36:45;;;;;;;7.38;2.70;;;22.40;53.90;;;;;;10475838;28;20082;-86
2022/05/09 11:47:42;;;;;;;4.05;2.45;;;22.90;49.20;;;;;;10470711;28;20068;-87
2022/05/09 11:52:44;;;;;;;6.30;2.35;;;22.40;48.50;;;;;;10460580;28;20040;-88
2022/05/09 11:57:52;;;;;;;4.47;2.00;;;22.30;47.40;;;;;;10457728;28;20016;-85
2022/05/09 12:02:56;;;;;;;6.35;2.53;;;22.10;50.30;;;;;;10463322;28;20484;-86
2022/05/09 12:08:02;;;;;;;8.23;2.38;;;22.30;46.60;;;;;;10432533;28;20179;-88
2022/05/09 12:13:14;;;;;;;7.18;2.50;;;21.80;46.50;;;;;;10468952;28;20495;-86
2022/05/09 12:18:51;;;;;;;6.10;2.05;;;22.10;47.00;;;;;;10461768;28;20028;-87
2022/05/09 12:24:10;;;;;;;7.90;2.30;;;22.30;46.70;;;;;;10474778;28;20049;-89
2022/05/09 12:29:19;;;;;;;6.07;2.60;;;22.60;48.30;;;;;;10476347;28;20679;-88
2022/05/09 12:34:38;;;;;;;5.97;2.58;;;23.10;49.90;;;;;;10450439;28;20484;-88
2022/05/09 12:39:50;;;;;;;4.97;2.22;;;23.30;47.20;;;;;;10473659;28;20044;-87
2022/05/09 12:44:53;;;;;;;5.25;2.30;;;23.30;46.20;;;;;;10449116;28;20383;-86
2022/05/09 12:50:01;;;;;;;9.00;2.65;;;22.60;46.20;;;;;;10443277;28;20029;-87
2022/05/09 13:00:30;;;;;;;5.60;2.42;;;22.30;49.00;;;;;;10466520;28;20028;-87
2022/05/09 13:05:38;;;;;;;5.40;2.45;;;22.10;47.30;;;;;;10459181;28;20141;-86
2022/05/09 13:10:49;;;;;;;5.97;2.65;;;22.70;48.90;;;;;;10452785;28;20040;-86
2022/05/09 13:15:53;;;;;;;4.60;2.15;;;22.90;50.80;;;;;;10473391;28;20119;-89
2022/05/09 13:21:00;;;;;;;4.67;2.30;;;22.90;48.70;;;;;;10483128;28;20035;-86
2022/05/09 13:26:04;;;;;;;5.80;2.20;;;22.70;46.30;;;;;;10472448;28;20126;-90
2022/05/09 13:31:05;;;;;;;5.32;2.50;;;22.30;47.70;;;;;;10491729;28;20034;-87
2022/05/09 13:36:06;;;;;;;3.60;2.05;;;21.70;48.10;;;;;;10462724;28;20032;-85
2022/05/09 13:41:24;;;;;;;3.80;2.05;;;21.70;48.00;;;;;;10477475;28;20021;-88
2022/05/09 13:46:31;;;;;;;8.35;2.75;;;21.70;48.50;;;;;;10467651;28;20154;-87
2022/05/09 13:51:36;;;;;;;6.30;2.50;;;21.60;48.10;;;;;;10489611;28;20040;-91
2022/05/09 13:56:38;;;;;;;4.38;2.58;;;21.70;49.70;;;;;;10472926;28;20028;-86
2022/05/09 14:01:48;;;;;;;4.53;2.30;;;22.00;52.10;;;;;;10469011;28;20044;-84
2022/05/09 14:06:49;;;;;;;5.97;2.70;;;22.00;52.10;;;;;;10456918;28;20166;-89
2022/05/09 14:12:03;;;;;;;7.45;4.35;;;21.90;49.60;;;;;;10457746;28;20036;-88
2022/05/09 14:17:09;;;;;;;5.63;2.55;;;21.80;51.00;;;;;;10472612;28;20131;-89
2022/05/09 14:22:13;;;;;;;3.45;2.35;;;21.60;48.80;;;;;;10469670;28;20112;-87
2022/05/09 14:32:43;;;;;;;7.15;3.40;;;20.90;50.50;;;;;;10416136;28;20057;-88
2022/05/09 14:37:51;;;;;;;8.13;2.65;;;20.80;49.20;;;;;;10417101;28;20032;-88
2022/05/09 14:43:04;;;;;;;5.78;3.28;;;20.60;50.70;;;;;;10443485;28;20123;-89
2022/05/09 14:48:10;;;;;;;5.50;2.55;;;20.60;52.40;;;;;;10435667;28;20052;-87
2022/05/09 14:53:29;;;;;;;4.95;2.50;;;20.80;51.70;;;;;;10411222;28;20122;-88
2022/05/09 14:58:34;;;;;;;4.88;2.70;;;20.80;51.90;;;;;;10418298;28;20025;-87
2022/05/09 15:03:36;;;;;;;7.88;2.67;;;20.70;51.80;;;;;;10429017;28;20108;-88
2022/05/09 15:08:38;;;;;;;7.38;2.67;;;20.60;53.20;;;;;;10426468;28;20095;-87
2022/05/09 15:13:38;;;;;;;13.98;3.63;;;20.40;51.50;;;;;;10418422;28;20033;-89
2022/05/09 15:18:39;;;;;;;11.05;2.92;;;20.20;52.70;;;;;;10436423;28;20607;-88
2022/05/09 15:23:40;;;;;;;8.18;3.03;;;20.30;52.10;;;;;;10440526;28;20107;-88
2022/05/09 15:28:41;;;;;;;4.15;2.45;;;20.20;53.50;;;;;;10457260;28;20433;-88
2022/05/09 15:33:42;;;;;;;4.18;2.42;;;20.20;55.60;;;;;;10487469;28;20119;-86
2022/05/09 15:38:43;;;;;;;5.68;2.72;;;20.20;55.70;;;;;;10482006;28;20035;-86
2022/05/09 15:43:47;;;;;;;5.93;2.65;;;20.10;54.90;;;;;;10461248;28;20036;-83
2022/05/09 15:48:48;;;;;;;3.92;2.58;;;20.00;55.20;;;;;;10463114;28;20036;-87
2022/05/09 15:53:51;;;;;;;4.50;2.47;;;19.80;54.10;;;;;;10449644;28;20093;-84
2022/05/09 15:58:53;;;;;;;3.75;2.72;;;19.70;55.20;;;;;;10464044;28;20025;-85
2022/05/09 16:03:54;;;;;;;7.28;2.50;;;19.50;55.70;;;;;;10459937;28;20500;-84
2022/05/09 16:14:17;;;;;;;6.75;2.83;;;19.30;55.80;;;;;;10481549;28;20063;-87
2022/05/09 16:19:23;;;;;;;4.82;2.65;;;19.20;55.10;;;;;;10468850;28;20040;-86
2022/05/09 16:24:25;;;;;;;3.97;2.38;;;19.20;55.50;;;;;;10472531;28;20122;-85
2022/05/09 16:29:26;;;;;;;5.72;2.40;;;19.10;55.50;;;;;;10464492;28;20037;-86
2022/05/09 16:34:31;;;;;;;5.65;2.53;;;19.10;57.00;;;;;;10472049;28;20552;-83
2022/05/09 16:39:38;;;;;;;7.60;3.40;;;19.00;56.70;;;;;;10467180;28;20051;-86
2022/05/09 16:44:38;;;;;;;4.22;3.03;;;19.00;57.40;;;;;;10475032;28;20056;-85
2022/05/09 16:49:39;;;;;;;5.15;2.95;;;18.90;57.90;;;;;;10491898;28;20127;-85
2022/05/09 16:54:40;;;;;;;7.47;3.03;;;18.70;57.90;;;;;;10452378;28;20488;-84
2022/05/09 16:59:43;;;;;;;4.15;2.38;;;18.60;58.50;;;;;;10473022;28;20120;-83
2022/05/09 17:04:44;;;;;;;5.57;3.20;;;18.50;59.40;;;;;;10490834;28;20380;-88
2022/05/09 17:09:45;;;;;;;6.43;3.13;;;18.40;58.60;;;;;;10464150;28;20051;-90
2022/05/09 17:14:47;;;;;;;7.45;2.83;;;18.30;58.40;;;;;;10464406;28;20630;-91
2022/05/09 17:19:47;;;;;;;7.80;3.33;;;18.20;58.60;;;;;;10482936;28;20135;-91
2022/05/09 17:24:48;;;;;;;5.25;2.92;;;18.10;59.40;;;;;;10496114;28;20135;-90
2022/05/09 17:29:49;;;;;;;4.88;2.67;;;18.00;60.00;;;;;;10454038;28;20041;-90
2022/05/09 17:34:50;;;;;;;3.80;2.58;;;17.90;60.10;;;;;;10453266;28;20037;-86
2022/05/09 17:39:52;;;;;;;4.63;2.55;;;17.80;61.20;;;;;;10440588;28;20391;-86
2022/05/09 17:44:54;;;;;;;5.68;2.67;;;17.60;61.50;;;;;;10472344;28;20132;-86
2022/05/09 17:49:58;;;;;;;5.55;2.95;;;17.30;62.80;;;;;;10451556;28;20055;-86
2022/05/09 17:54:59;;;;;;;5.55;3.40;;;17.00;66.00;;;;;;10463363;28;20495;-87
2022/05/09 17:59:59;;;;;;;4.53;3.00;;;16.50;65.80;;;;;;10477540;28;20046;-87
2022/05/09 18:05:00;;;;;;;4.57;3.10;;;16.20;68.10;;;;;;10483046;28;20028;-86
2022/05/09 18:10:00;;;;;;;6.30;3.33;;;15.70;67.40;;;;;;10475609;28;20041;-87
2022/05/09 18:15:13;;;;;;;5.35;2.90;;;15.50;70.30;;;;;;10480403;28;20770;-85
2022/05/09 18:20:18;;;;;;;9.27;3.70;;;15.00;72.20;;;;;;10468981;28;20028;-83
2022/05/09 18:25:23;;;;;;;7.20;3.75;;;14.50;73.70;;;;;;10443446;28;20052;-86
2022/05/09 18:30:24;;;;;;;6.70;3.92;;;14.20;75.00;;;;;;10486999;28;20119;-88
2022/05/09 18:35:25;;;;;;;11.15;4.85;;;13.90;75.60;;;;;;10468621;28;20375;-89
2022/05/09 18:40:27;;;;;;;9.30;4.05;;;13.70;75.60;;;;;;10480980;28;20033;-86
2022/05/09 18:45:28;;;;;;;5.70;3.60;;;13.50;77.10;;;;;;10453028;28;20072;-86
2022/05/09 18:55:50;;;;;;;7.40;4.15;;;13.10;78.50;;;;;;10462991;28;20488;-89
2022/05/09 19:00:50;;;;;;;6.07;4.43;;;12.90;79.90;;;;;;10463924;28;20032;-87
2022/05/09 19:05:58;;;;;;;6.88;4.28;;;12.70;80.70;;;;;;10458112;28;20036;-88
2022/05/09 19:11:02;;;;;;;8.05;4.25;;;12.50;81.70;;;;;;10480634;28;20058;-88
2022/05/09 19:16:02;;;;;;;9.13;5.30;;;12.30;83.30;;;;;;10470580;28;20028;-87
2022/05/09 19:21:03;;;;;;;7.80;5.20;;;12.20;84.40;;;;;;10489707;28;20033;-87
2022/05/09 19:26:05;;;;;;;7.75;5.60;;;12.10;86.80;;;;;;10473907;28;20093;-87
2022/05/09 19:31:06;;;;;;;12.07;5.65;;;12.00;89.00;;;;;;10470897;28;20042;-86
2022/05/09 19:36:07;;;;;;;9.38;5.82;;;11.80;90.50;;;;;;10473064;28;20133;-87
2022/05/09 19:41:28;;;;;;;13.10;5.78;;;11.70;91.90;;;;;;10485510;28;20166;-88
2022/05/09 19:46:31;;;;;;;12.63;6.60;;;11.70;92.70;;;;;;10470427;28;20029;-89
2022/05/09 19:51:32;;;;;;;10.73;6.20;;;11.50;94.50;;;;;;10464553;28;20131;-88
2022/05/09 19:56:33;;;;;;;11.18;6.10;;;11.60;94.60;;;;;;10451469;28;20028;-90
2022/05/09 20:01:35;;;;;;;11.85;6.07;;;11.70;95.10;;;;;;10469614;28;20408;-88
2022/05/09 20:06:35;;;;;;;15.20;7.47;;;11.70;94.60;;;;;;10448326;28;20028;-87
2022/05/09 20:11:36;;;;;;;10.23;5.80;;;11.70;94.00;;;;;;10476809;28;20040;-88
2022/05/09 20:16:36;;;;;;;15.38;6.32;;;11.80;92.70;;;;;;10463373;28;20374;-91
2022/05/09 20:21:37;;;;;;;11.82;6.20;;;11.80;93.50;;;;;;10451838;28;20029;-87
2022/05/09 20:31:58;;;;;;;9.75;5.93;;;11.50;93.60;;;;;;10462060;28;20460;-87
2022/05/09 20:36:59;;;;;;;10.88;4.90;;;11.50;94.00;;;;;;10465074;28;20021;-88
2022/05/09 20:41:59;;;;;;;9.48;5.10;;;11.70;92.40;;;;;;10469476;28;20107;-88
2022/05/09 20:47:00;;;;;;;8.77;4.85;;;12.00;90.90;;;;;;10462384;28;20348;-87
2022/05/09 20:52:01;;;;;;;8.80;5.32;;;12.00;91.90;;;;;;10443512;28;20045;-89
2022/05/09 20:57:02;;;;;;;9.40;5.07;;;11.90;91.60;;;;;;10450069;28;20478;-89
2022/05/09 21:02:09;;;;;;;9.02;4.95;;;12.00;90.30;;;;;;10460780;28;20027;-90
2022/05/09 21:07:10;;;;;;;8.05;4.80;;;12.10;90.00;;;;;;10447987;28;20454;-89
2022/05/09 21:12:18;;;;;;;8.00;4.88;;;12.20;89.50;;;;;;10450826;28;20469;-88
2022/05/09 21:17:20;;;;;;;7.97;5.68;;;12.10;89.70;;;;;;10450732;28;20024;-89
2022/05/09 21:22:23;;;;;;;10.10;5.43;;;12.10;89.70;;;;;;10447386;28;20028;-88
2022/05/09 21:27:25;;;;;;;10.23;5.10;;;12.00;90.00;;;;;;10462291;28;20044;-89
2022/05/09 21:32:25;;;;;;;7.05;4.75;;;12.00;90.00;;;;;;10470153;28;20048;-89
2022/05/09 21:37:26;;;;;;;9.45;4.95;;;11.90;90.40;;;;;;10457150;28;20456;-90
2022/05/09 21:42:27;;;;;;;10.75;5.47;;;11.90;90.40;;;;;;10481875;28;20036;-89
2022/05/09 21:47:27;;;;;;;10.07;5.03;;;11.80;91.10;;;;;;10458641;28;20040;-89
2022/05/09 21:52:32;;;;;;;11.73;4.90;;;11.70;91.50;;;;;;10480660;28;20048;-89
2022/05/09 21:57:33;;;;;;;13.05;5.32;;;11.60;91.60;;;;;;10471357;28;20553;-88
2022/05/09 22:02:34;;;;;;;10.77;5.57;;;11.50;92.30;;;;;;10464369;28;20035;-90
2022/05/09 22:07:35;;;;;;;9.43;4.65;;;11.40;92.30;;;;;;10438229;28;20483;-90
2022/05/09 22:12:36;;;;;;;10.25;5.32;;;11.30;93.30;;;;;;10470869;28;20055;-90
2022/05/09 22:17:36;;;;;;;11.70;5.38;;;11.20;93.30;;;;;;10491910;28;20044;-88
2022/05/09 22:22:37;;;;;;;6.80;4.75;;;11.30;92.10;;;;;;10483874;28;20040;-89
2022/05/09 22:27:38;;;;;;;8.73;4.95;;;11.30;91.80;;;;;;10473048;28;20097;-91
2022/05/09 22:32:38;;;;;;;7.85;4.25;;;11.40;90.90;;;;;;10471074;28;20037;-90
2022/05/09 22:37:45;;;;;;;10.45;5.45;;;11.60;90.50;;;;;;10464300;28;20036;-90
2022/05/09 22:42:46;;;;;;;7.95;4.70;;;11.60;89.20;;;;;;10470024;28;20079;-90
2022/05/09 22:47:49;;;;;;;9.13;4.40;;;11.60;88.30;;;;;;10472476;28;20032;-92
2022/05/09 22:52:50;;;;;;;7.68;4.22;;;11.60;87.80;;;;;;10489179;28;20040;-89
2022/05/09 22:57:55;;;;;;;8.13;4.68;;;11.60;87.50;;;;;;10470240;28;20479;-91
2022/05/09 23:03:00;;;;;;;8.23;4.43;;;11.50;87.40;;;;;;10472777;28;20032;-90
2022/05/09 23:08:00;;;;;;;10.60;4.68;;;11.40;87.10;;;;;;10475315;28;20089;-93
2022/05/09 23:13:03;;;;;;;10.25;4.70;;;11.30;87.00;;;;;;10446792;28;20049;-91
2022/05/09 23:18:03;;;;;;;7.45;3.88;;;11.30;86.90;;;;;;10484254;28;20033;-90
2022/05/09 23:23:04;;;;;;;9.90;4.63;;;11.20;86.90;;;;;;10477924;28;20036;-89
2022/05/09 23:28:06;;;;;;;8.25;4.45;;;11.20;87.20;;;;;;10489786;28;20036;-90
2022/05/09 23:33:07;;;;;;;8.25;4.40;;;11.10;87.10;;;;;;10450057;28;20048;-90
2022/05/09 23:38:07;;;;;;;9.27;4.17;;;11.10;87.40;;;;;;10430929;28;20159;-90
2022/05/09 23:43:08;;;;;;;8.02;5.03;;;11.00;88.10;;;;;;10457408;28;20033;-90
2022/05/09 23:48:09;;;;;;;7.88;4.13;;;10.90;87.80;;;;;;10478093;28;20032;-89
2022/05/09 23:53:11;;;;;;;7.60;4.47;;;10.90;86.80;;;;;;10466302;28;20120;-89
2022/05/09 23:58:12;;;;;;;8.37;4.23;;;10.80;86.50;;;;;;10467829;28;20715;-90
